createdAt,value
2023-04-10T00:00:30.339Z,7.00
2023-04-10T00:01:30.314Z,7.00
2023-04-10T00:02:30.541Z,6.80
2023-04-10T00:03:30.449Z,6.90
2023-04-10T00:04:30.355Z,7.20
2023-04-10T00:05:30.276Z,6.70
2023-04-10T00:06:30.261Z,6.90
2023-04-10T00:07:30.253Z,7.20
2023-04-10T00:08:30.227Z,7.00
2023-04-10T00:09:30.231Z,7.20
2023-04-10T00:10:30.219Z,6.60
2023-04-10T00:11:30.198Z,7.30
2023-04-10T00:12:30.179Z,6.10
2023-04-10T00:13:30.165Z,6.70
2023-04-10T00:14:30.158Z,6.40
2023-04-10T00:15:30.174Z,6.60
2023-04-10T00:16:30.152Z,6.90
2023-04-10T00:17:30.169Z,6.70
2023-04-10T00:18:30.111Z,6.90
2023-04-10T00:19:30.085Z,6.80
2023-04-10T00:20:30.081Z,6.40
2023-04-10T00:21:30.067Z,6.90
2023-04-10T00:22:30.039Z,7.00
2023-04-10T00:23:30.069Z,6.90
2023-04-10T00:24:30.016Z,7.30
2023-04-10T00:25:30.014Z,7.20
2023-04-10T00:26:29.996Z,6.60
2023-04-10T00:27:30.006Z,7.00
2023-04-10T00:28:29.976Z,6.90
2023-04-10T00:29:29.970Z,7.50
2023-04-10T00:30:29.954Z,7.30
2023-04-10T00:31:29.951Z,7.40
2023-04-10T00:32:29.965Z,7.50
2023-04-10T00:33:29.942Z,7.50
2023-04-10T00:34:29.908Z,7.60
2023-04-10T00:35:29.910Z,7.50
2023-04-10T00:36:29.869Z,7.10
2023-04-10T00:37:29.865Z,7.50
2023-04-10T00:38:29.866Z,7.40
2023-04-10T00:39:29.855Z,6.90
2023-04-10T00:40:29.823Z,6.90
2023-04-10T00:41:29.844Z,7.10
2023-04-10T00:42:29.830Z,7.50
2023-04-10T00:43:29.822Z,7.20
2023-04-10T00:44:29.801Z,7.40
2023-04-10T00:45:29.758Z,7.50
2023-04-10T00:46:29.883Z,7.50
2023-04-10T00:47:29.750Z,7.10
2023-04-10T00:48:29.734Z,7.60
2023-04-10T00:49:29.713Z,6.70
2023-04-10T00:50:29.687Z,7.20
2023-04-10T00:51:29.689Z,7.80
2023-04-10T00:52:29.659Z,7.10
2023-04-10T00:53:29.661Z,7.00
2023-04-10T00:54:29.644Z,7.10
2023-04-10T00:55:29.625Z,7.40
2023-04-10T00:56:29.614Z,7.20
2023-04-10T00:57:29.600Z,7.00
2023-04-10T00:58:29.597Z,7.50
2023-04-10T00:59:29.587Z,7.50
2023-04-10T01:00:29.573Z,6.90
2023-04-10T01:01:29.632Z,8.00
2023-04-10T01:02:29.738Z,7.50
2023-04-10T01:03:29.680Z,7.20
2023-04-10T01:04:29.686Z,7.50
2023-04-10T01:05:29.523Z,7.50
2023-04-10T01:06:29.484Z,7.30
2023-04-10T01:07:29.516Z,7.10
2023-04-10T01:08:29.472Z,6.70
2023-04-10T01:09:29.470Z,7.00
2023-04-10T01:10:29.429Z,6.60
2023-04-10T01:11:29.448Z,7.30
2023-04-10T01:12:29.554Z,7.00
2023-04-10T01:13:29.420Z,6.90
2023-04-10T01:14:29.406Z,6.80
2023-04-10T01:15:29.380Z,7.00
2023-04-10T01:16:29.418Z,6.80
2023-04-10T01:17:29.384Z,6.70
2023-04-10T01:18:29.325Z,7.10
2023-04-10T01:19:29.336Z,7.10
2023-04-10T01:20:29.302Z,7.20
2023-04-10T01:21:29.286Z,7.40
2023-04-10T01:22:29.285Z,7.00
2023-04-10T01:23:29.292Z,7.00
2023-04-10T01:24:29.264Z,6.40
2023-04-10T01:25:29.244Z,6.30
2023-04-10T01:26:29.251Z,7.10
2023-04-10T01:27:29.221Z,6.60
2023-04-10T01:28:29.201Z,6.60
2023-04-10T01:29:29.227Z,6.60
2023-04-10T01:30:29.188Z,6.50
2023-04-10T01:31:29.177Z,6.50
2023-04-10T01:32:29.181Z,6.80
2023-04-10T01:33:29.172Z,6.50
2023-04-10T01:34:29.155Z,6.60
2023-04-10T01:35:29.194Z,6.40
2023-04-10T01:36:29.096Z,6.30
2023-04-10T01:37:29.092Z,6.70
2023-04-10T01:38:29.070Z,6.10
2023-04-10T01:39:29.119Z,7.10
2023-04-10T01:40:29.080Z,6.80
2023-04-10T01:41:29.050Z,6.30
2023-04-10T01:42:29.031Z,6.20
2023-04-10T01:43:29.041Z,6.60
2023-04-10T01:44:29.040Z,6.40
2023-04-10T01:45:29.056Z,6.70
2023-04-10T01:46:29.007Z,6.80
2023-04-10T01:47:29.049Z,6.80
2023-04-10T01:48:28.979Z,6.40
2023-04-10T01:49:28.950Z,7.10
2023-04-10T01:50:29.041Z,7.00
2023-04-10T01:51:28.944Z,6.60
2023-04-10T01:52:28.918Z,7.00
2023-04-10T01:53:28.910Z,6.80
2023-04-10T01:54:28.876Z,6.70
2023-04-10T01:55:28.876Z,6.60
2023-04-10T01:56:28.875Z,6.90
2023-04-10T01:57:28.837Z,7.10
2023-04-10T01:58:28.830Z,6.30
2023-04-10T01:59:28.808Z,6.50
2023-04-10T02:00:28.878Z,6.80
2023-04-10T02:01:30.438Z,6.80
2023-04-10T02:02:28.939Z,7.70
2023-04-10T02:03:29.072Z,7.00
2023-04-10T02:04:28.894Z,6.60
2023-04-10T02:05:28.756Z,6.90
2023-04-10T02:06:28.749Z,7.00
2023-04-10T02:07:28.713Z,7.10
2023-04-10T02:08:28.691Z,7.00
2023-04-10T02:09:28.702Z,7.10
2023-04-10T02:10:28.693Z,7.00
2023-04-10T02:11:28.670Z,7.10
2023-04-10T02:12:28.687Z,7.30
2023-04-10T02:13:28.628Z,6.80
2023-04-10T02:14:28.657Z,6.90
2023-04-10T02:15:28.646Z,6.90
2023-04-10T02:16:28.685Z,7.20
2023-04-10T02:17:28.626Z,7.10
2023-04-10T02:18:28.561Z,7.40
2023-04-10T02:19:28.608Z,7.20
2023-04-10T02:20:28.566Z,7.20
2023-04-10T02:21:28.598Z,7.10
2023-04-10T02:22:28.510Z,6.90
2023-04-10T02:23:28.547Z,7.30
2023-04-10T02:24:28.492Z,6.80
2023-04-10T02:25:28.472Z,7.10
2023-04-10T02:26:28.464Z,7.20
2023-04-10T02:27:28.510Z,7.00
2023-04-10T02:28:28.430Z,6.80
2023-04-10T02:29:28.452Z,6.50
2023-04-10T02:30:28.416Z,7.20
2023-04-10T02:31:28.441Z,7.60
2023-04-10T02:32:28.409Z,6.90
2023-04-10T02:33:28.369Z,6.50
2023-04-10T02:34:28.377Z,6.90
2023-04-10T02:35:28.355Z,7.10
2023-04-10T02:36:28.346Z,6.70
2023-04-10T02:37:28.337Z,6.80
2023-04-10T02:38:28.300Z,6.80
2023-04-10T02:39:28.299Z,6.50
2023-04-10T02:40:28.287Z,7.20
2023-04-10T02:41:28.264Z,7.00
2023-04-10T02:42:28.272Z,7.30
2023-04-10T02:43:28.258Z,6.60
2023-04-10T02:44:28.242Z,6.80
2023-04-10T02:45:28.202Z,7.10
2023-04-10T02:46:28.259Z,7.10
2023-04-10T02:47:28.285Z,7.20
2023-04-10T02:48:28.224Z,7.20
2023-04-10T02:49:28.175Z,7.10
2023-04-10T02:50:28.164Z,7.10
2023-04-10T02:51:28.137Z,6.70
2023-04-10T02:52:28.159Z,7.10
2023-04-10T02:53:28.130Z,6.90
2023-04-10T02:54:28.091Z,6.60
2023-04-10T02:55:28.097Z,6.60
2023-04-10T02:56:28.070Z,6.50
2023-04-10T02:57:28.062Z,6.80
2023-04-10T02:58:28.070Z,6.70
2023-04-10T02:59:28.082Z,6.80
2023-04-10T03:00:28.019Z,6.80
2023-04-10T03:01:28.028Z,6.80
2023-04-10T03:02:28.165Z,6.80
2023-04-10T03:03:28.053Z,6.60
2023-04-10T03:04:28.034Z,6.60
2023-04-10T03:05:27.950Z,6.30
2023-04-10T03:06:27.961Z,6.20
2023-04-10T03:07:27.942Z,6.70
2023-04-10T03:08:27.926Z,6.80
2023-04-10T03:09:27.914Z,6.50
2023-04-10T03:10:27.910Z,6.70
2023-04-10T03:11:27.873Z,6.10
2023-04-10T03:12:27.878Z,6.80
2023-04-10T03:13:27.869Z,6.40
2023-04-10T03:14:27.838Z,6.60
2023-04-10T03:15:27.820Z,6.50
2023-04-10T03:16:27.836Z,6.60
2023-04-10T03:17:27.819Z,6.70
2023-04-10T03:18:27.781Z,6.00
2023-04-10T03:19:27.756Z,6.30
2023-04-10T03:20:27.770Z,6.40
2023-04-10T03:21:27.758Z,6.90
2023-04-10T03:22:27.734Z,6.40
2023-04-10T03:23:27.744Z,6.50
2023-04-10T03:24:27.730Z,6.70
2023-04-10T03:25:27.709Z,6.30
2023-04-10T03:26:27.700Z,6.60
2023-04-10T03:27:27.694Z,6.80
2023-04-10T03:28:27.671Z,6.80
2023-04-10T03:29:27.643Z,6.60
2023-04-10T03:30:27.622Z,6.60
2023-04-10T03:31:27.657Z,7.00
2023-04-10T03:32:27.606Z,6.20
2023-04-10T03:33:27.621Z,6.50
2023-04-10T03:34:27.569Z,6.40
2023-04-10T03:35:27.579Z,6.70
2023-04-10T03:36:27.591Z,5.90
2023-04-10T03:37:27.525Z,6.10
2023-04-10T03:38:27.539Z,6.60
2023-04-10T03:39:27.510Z,6.50
2023-04-10T03:40:27.494Z,6.20
2023-04-10T03:41:34.014Z,6.40
2023-04-10T03:42:27.464Z,6.30
2023-04-10T03:43:27.466Z,6.60
2023-04-10T03:44:27.440Z,6.20
2023-04-10T03:45:27.415Z,5.90
2023-04-10T03:46:27.457Z,6.20
2023-04-10T03:47:27.454Z,6.40
2023-04-10T03:48:27.394Z,6.00
2023-04-10T03:49:27.380Z,6.30
2023-04-10T03:50:27.359Z,6.00
2023-04-10T03:51:27.369Z,6.70
2023-04-10T03:52:27.334Z,6.20
2023-04-10T03:53:27.317Z,5.90
2023-04-10T03:54:27.342Z,6.40
2023-04-10T03:55:27.279Z,5.90
2023-04-10T03:56:27.311Z,6.10
2023-04-10T03:57:27.261Z,6.20
2023-04-10T03:58:27.277Z,6.10
2023-04-10T03:59:37.935Z,5.60
2023-04-10T04:00:27.241Z,6.00
2023-04-10T04:01:27.274Z,5.80
2023-04-10T04:02:27.343Z,6.10
2023-04-10T04:03:27.348Z,6.70
2023-04-10T04:04:27.329Z,5.90
2023-04-10T04:05:27.195Z,6.60
2023-04-10T04:06:27.152Z,6.00
2023-04-10T04:07:27.159Z,6.10
2023-04-10T04:08:27.123Z,6.00
2023-04-10T04:09:27.106Z,6.50
2023-04-10T04:10:27.098Z,5.90
2023-04-10T04:11:27.064Z,5.80
2023-04-10T04:12:27.058Z,6.50
2023-04-10T04:13:27.088Z,5.40
2023-04-10T04:14:27.053Z,5.90
2023-04-10T04:15:27.031Z,5.80
2023-04-10T04:16:27.025Z,5.60
2023-04-10T04:17:27.052Z,5.70
2023-04-10T04:18:26.989Z,5.90
2023-04-10T04:19:26.979Z,6.00
2023-04-10T04:20:26.983Z,5.80
2023-04-10T04:21:27.002Z,6.10
2023-04-10T04:22:26.943Z,6.00
2023-04-10T04:23:26.968Z,5.60
2023-04-10T04:24:26.916Z,5.60
2023-04-10T04:25:26.906Z,6.20
2023-04-10T04:26:26.900Z,5.50
2023-04-10T04:27:26.886Z,5.40
2023-04-10T04:28:28.377Z,5.40
2023-04-10T04:29:26.874Z,5.70
2023-04-10T04:30:26.849Z,5.60
2023-04-10T04:31:26.828Z,5.70
2023-04-10T04:32:26.839Z,5.90
2023-04-10T04:33:26.825Z,5.50
2023-04-10T04:34:26.827Z,5.90
2023-04-10T04:35:26.778Z,5.90
2023-04-10T04:36:26.762Z,4.90
2023-04-10T04:37:26.768Z,5.60
2023-04-10T04:38:26.766Z,6.10
2023-04-10T04:39:26.751Z,6.40
2023-04-10T04:40:26.751Z,5.60
2023-04-10T04:41:26.723Z,6.00
2023-04-10T04:42:26.689Z,5.60
2023-04-10T04:43:26.706Z,5.50
2023-04-10T04:44:26.674Z,5.50
2023-04-10T04:45:26.646Z,6.20
2023-04-10T04:46:26.657Z,5.70
2023-04-10T04:47:26.658Z,5.60
2023-04-10T04:48:26.615Z,5.70
2023-04-10T04:49:26.600Z,5.90
2023-04-10T04:50:26.581Z,6.10
2023-04-10T04:51:26.605Z,6.40
2023-04-10T04:52:26.575Z,6.20
2023-04-10T04:53:26.552Z,6.10
2023-04-10T04:54:26.563Z,5.90
2023-04-10T04:55:26.527Z,6.00
2023-04-10T04:56:26.526Z,6.10
2023-04-10T04:57:26.506Z,5.80
2023-04-10T04:58:26.497Z,6.00
2023-04-10T04:59:26.487Z,6.50
2023-04-10T05:00:26.506Z,6.20
2023-04-10T05:01:26.495Z,6.80
2023-04-10T05:02:26.629Z,6.50
2023-04-10T05:03:26.583Z,6.30
2023-04-10T05:04:26.496Z,6.70
2023-04-10T05:05:26.404Z,6.50
2023-04-10T05:06:26.405Z,6.90
2023-04-10T05:07:26.372Z,6.70
2023-04-10T05:08:26.403Z,6.80
2023-04-10T05:09:26.355Z,6.90
2023-04-10T05:10:26.343Z,6.50
2023-04-10T05:11:26.345Z,6.70
2023-04-10T05:12:26.322Z,6.60
2023-04-10T05:13:26.343Z,6.90
2023-04-10T05:14:26.332Z,6.40
2023-04-10T05:15:26.500Z,6.60
2023-04-10T05:16:26.255Z,6.50
2023-04-10T05:17:26.305Z,6.40
2023-04-10T05:18:26.305Z,6.40
2023-04-10T05:19:26.217Z,6.50
2023-04-10T05:20:26.216Z,6.50
2023-04-10T05:21:26.224Z,6.60
2023-04-10T05:22:26.194Z,6.90
2023-04-10T05:23:26.180Z,6.80
2023-04-10T05:24:26.177Z,6.60
2023-04-10T05:25:26.145Z,6.30
2023-04-10T05:26:26.144Z,6.60
2023-04-10T05:27:26.130Z,6.30
2023-04-10T05:28:26.111Z,6.70
2023-04-10T05:29:26.112Z,6.40
2023-04-10T05:30:26.089Z,6.40
2023-04-10T05:31:26.170Z,7.00
2023-04-10T05:32:26.116Z,6.30
2023-04-10T05:33:26.093Z,6.60
2023-04-10T05:34:26.070Z,6.50
2023-04-10T05:35:26.048Z,6.50
2023-04-10T05:36:26.037Z,6.80
2023-04-10T05:37:26.006Z,6.80
2023-04-10T05:38:25.996Z,7.00
2023-04-10T05:39:25.971Z,6.80
2023-04-10T05:40:26.001Z,6.70
2023-04-10T05:41:26.003Z,6.90
2023-04-10T05:42:25.954Z,7.10
2023-04-10T05:43:25.930Z,6.40
2023-04-10T05:44:25.927Z,6.40
2023-04-10T05:45:25.934Z,6.10
2023-04-10T05:46:25.917Z,6.80
2023-04-10T05:47:25.978Z,6.50
2023-04-10T05:48:25.885Z,6.40
2023-04-10T05:49:25.869Z,6.80
2023-04-10T05:50:25.888Z,6.50
2023-04-10T05:51:25.826Z,6.90
2023-04-10T05:52:25.854Z,6.70
2023-04-10T05:53:25.830Z,6.20
2023-04-10T05:54:25.822Z,6.40
2023-04-10T05:55:25.771Z,6.30
2023-04-10T05:56:25.810Z,6.90
2023-04-10T05:57:25.810Z,6.30
2023-04-10T05:58:25.785Z,6.50
2023-04-10T05:59:25.740Z,7.00
2023-04-10T06:00:25.713Z,6.50
2023-04-10T06:01:25.701Z,6.50
2023-04-10T06:02:25.866Z,7.20
2023-04-10T06:03:25.779Z,7.00
2023-04-10T06:04:25.829Z,7.00
2023-04-10T06:05:25.743Z,7.00
2023-04-10T06:06:25.665Z,6.60
2023-04-10T06:07:25.672Z,6.90
2023-04-10T06:08:25.638Z,6.70
2023-04-10T06:09:25.593Z,6.40
2023-04-10T06:10:25.613Z,6.90
2023-04-10T06:11:25.586Z,7.10
2023-04-10T06:12:25.576Z,6.40
2023-04-10T06:13:25.549Z,6.40
2023-04-10T06:14:25.529Z,6.90
2023-04-10T06:15:25.507Z,6.90
2023-04-10T06:16:25.750Z,6.90
2023-04-10T06:17:25.544Z,7.10
2023-04-10T06:18:25.490Z,7.00
2023-04-10T06:19:25.465Z,6.40
2023-04-10T06:20:25.453Z,7.10
2023-04-10T06:21:25.473Z,6.40
2023-04-10T06:22:25.434Z,7.00
2023-04-10T06:23:25.413Z,6.80
2023-04-10T06:24:25.434Z,6.80
2023-04-10T06:25:25.406Z,6.90
2023-04-10T06:26:25.385Z,7.20
2023-04-10T06:27:25.390Z,6.70
2023-04-10T06:28:25.436Z,6.90
2023-04-10T06:29:25.348Z,6.70
2023-04-10T06:30:25.326Z,6.90
2023-04-10T06:31:25.357Z,7.10
2023-04-10T06:32:25.355Z,6.70
2023-04-10T06:33:26.401Z,7.10
2023-04-10T06:34:25.282Z,7.20
2023-04-10T06:35:25.271Z,7.20
2023-04-10T06:36:25.264Z,6.80
2023-04-10T06:37:25.263Z,7.10
2023-04-10T06:38:25.261Z,6.90
2023-04-10T06:39:25.223Z,7.10
2023-04-10T06:40:25.200Z,7.00
2023-04-10T06:41:25.178Z,6.70
2023-04-10T06:42:25.182Z,7.00
2023-04-10T06:43:25.171Z,7.20
2023-04-10T06:44:25.142Z,7.30
2023-04-10T06:45:25.125Z,7.00
2023-04-10T06:46:25.152Z,7.10
2023-04-10T06:47:25.128Z,7.00
2023-04-10T06:48:25.134Z,7.30
2023-04-10T06:49:25.389Z,7.00
2023-04-10T06:50:25.058Z,6.50
2023-04-10T06:51:25.043Z,7.60
2023-04-10T06:52:25.087Z,7.30
2023-04-10T06:53:25.031Z,7.10
2023-04-10T06:54:25.026Z,7.00
2023-04-10T06:55:25.032Z,6.90
2023-04-10T06:56:25.078Z,7.00
2023-04-10T06:57:24.990Z,7.10
2023-04-10T06:58:24.952Z,6.50
2023-04-10T06:59:24.955Z,7.20
2023-04-10T07:00:24.935Z,7.10
2023-04-10T07:01:26.079Z,7.20
2023-04-10T07:02:25.349Z,7.30
2023-04-10T07:03:24.899Z,7.10
2023-04-10T07:04:24.934Z,6.50
2023-04-10T07:05:24.874Z,7.20
2023-04-10T07:06:24.883Z,6.90
2023-04-10T07:07:24.856Z,7.30
2023-04-10T07:08:24.879Z,6.70
2023-04-10T07:09:24.822Z,7.10
2023-04-10T07:10:24.813Z,7.00
2023-04-10T07:11:24.810Z,6.70
2023-04-10T07:12:24.808Z,7.00
2023-04-10T07:13:24.761Z,6.60
2023-04-10T07:14:24.759Z,6.50
2023-04-10T07:15:24.770Z,6.80
2023-04-10T07:16:24.754Z,7.00
2023-04-10T07:17:24.767Z,6.70
2023-04-10T07:18:24.716Z,6.80
2023-04-10T07:19:24.711Z,6.60
2023-04-10T07:20:24.707Z,6.50
2023-04-10T07:21:24.675Z,6.40
2023-04-10T07:22:24.717Z,6.70
2023-04-10T07:23:24.656Z,6.40
2023-04-10T07:24:24.651Z,6.50
2023-04-10T07:25:24.639Z,6.80
2023-04-10T07:26:24.612Z,6.30
2023-04-10T07:27:24.597Z,6.60
2023-04-10T07:28:24.614Z,6.70
2023-04-10T07:29:24.558Z,6.90
2023-04-10T07:30:24.571Z,6.40
2023-04-10T07:31:33.050Z,6.60
2023-04-10T07:32:24.766Z,6.80
2023-04-10T07:33:24.547Z,6.50
2023-04-10T07:34:24.494Z,7.00
2023-04-10T07:35:24.498Z,6.30
2023-04-10T07:36:24.490Z,6.30
2023-04-10T07:37:24.456Z,6.70
2023-04-10T07:38:24.496Z,6.80
2023-04-10T07:39:24.447Z,7.20
2023-04-10T07:40:24.431Z,6.60
2023-04-10T07:41:24.452Z,6.80
2023-04-10T07:42:24.409Z,6.60
2023-04-10T07:43:24.387Z,6.30
2023-04-10T07:44:24.399Z,6.70
2023-04-10T07:45:24.453Z,6.40
2023-04-10T07:46:24.390Z,6.70
2023-04-10T07:47:24.503Z,6.40
2023-04-10T07:48:24.336Z,6.90
2023-04-10T07:49:24.341Z,6.90
2023-04-10T07:50:24.323Z,6.40
2023-04-10T07:51:24.295Z,6.80
2023-04-10T07:52:24.269Z,7.00
2023-04-10T07:53:24.272Z,6.60
2023-04-10T07:54:24.293Z,6.80
2023-04-10T07:55:24.284Z,6.20
2023-04-10T07:56:24.235Z,6.30
2023-04-10T07:57:24.215Z,6.40
2023-04-10T07:58:24.200Z,7.10
2023-04-10T07:59:24.227Z,6.20
2023-04-10T08:00:24.207Z,6.20
2023-04-10T08:01:24.150Z,7.00
2023-04-10T08:02:24.327Z,5.80
2023-04-10T08:03:24.281Z,6.30
2023-04-10T08:04:24.321Z,6.50
2023-04-10T08:05:24.246Z,6.00
2023-04-10T08:06:24.088Z,6.00
2023-04-10T08:07:24.096Z,6.00
2023-04-10T08:08:24.065Z,5.70
2023-04-10T08:09:24.060Z,5.30
2023-04-10T08:10:24.065Z,5.10
2023-04-10T08:11:24.043Z,6.20
2023-04-10T08:12:24.019Z,5.00
2023-04-10T08:13:24.006Z,5.30
2023-04-10T08:14:24.010Z,5.40
2023-04-10T08:15:24.020Z,5.40
2023-04-10T08:16:24.043Z,5.40
2023-04-10T08:17:24.006Z,5.10
2023-04-10T08:18:23.928Z,4.80
2023-04-10T08:19:23.937Z,5.30
2023-04-10T08:20:23.946Z,5.40
2023-04-10T08:21:23.897Z,5.20
2023-04-10T08:22:23.882Z,4.90
2023-04-10T08:23:23.875Z,5.00
2023-04-10T08:24:23.853Z,5.10
2023-04-10T08:25:23.874Z,5.00
2023-04-10T08:26:23.844Z,5.30
2023-04-10T08:27:23.846Z,4.90
2023-04-10T08:28:23.830Z,5.30
2023-04-10T08:30:23.929Z,5.10
2023-04-10T08:31:23.938Z,5.30
2023-04-10T08:32:23.782Z,5.00
2023-04-10T08:33:23.753Z,5.20
2023-04-10T08:34:23.732Z,5.00
2023-04-10T08:35:23.725Z,5.40
2023-04-10T08:36:23.735Z,4.90
2023-04-10T08:37:23.713Z,5.20
2023-04-10T08:38:23.689Z,5.40
2023-04-10T08:39:23.695Z,5.00
2023-04-10T08:40:23.700Z,5.10
2023-04-10T08:41:23.674Z,5.10
2023-04-10T08:42:23.640Z,4.80
2023-04-10T08:43:23.642Z,5.30
2023-04-10T08:44:23.604Z,4.70
2023-04-10T08:45:23.611Z,4.90
2023-04-10T08:46:23.602Z,5.20
2023-04-10T08:47:23.622Z,5.20
2023-04-10T08:48:23.590Z,5.70
2023-04-10T08:49:23.546Z,5.00
2023-04-10T08:50:23.553Z,5.00
2023-04-10T08:51:26.223Z,5.60
2023-04-10T08:52:23.507Z,5.60
2023-04-10T08:53:23.503Z,5.60
2023-04-10T08:54:23.517Z,5.40
2023-04-10T08:55:23.479Z,6.00
2023-04-10T08:56:23.473Z,5.10
2023-04-10T08:57:23.445Z,4.80
2023-04-10T08:58:23.526Z,5.40
2023-04-10T08:59:23.429Z,5.50
2023-04-10T09:00:23.846Z,5.30
2023-04-10T09:01:23.471Z,5.00
2023-04-10T09:02:23.505Z,5.20
2023-04-10T09:03:23.526Z,5.00
2023-04-10T09:04:23.470Z,5.30
2023-04-10T09:05:23.351Z,4.90
2023-04-10T09:06:23.356Z,6.00
2023-04-10T09:07:23.322Z,4.80
2023-04-10T09:08:23.467Z,5.20
2023-04-10T09:09:23.311Z,5.00
2023-04-10T09:10:23.323Z,4.60
2023-04-10T09:11:23.311Z,5.20
2023-04-10T09:12:23.271Z,4.50
2023-04-10T09:13:23.259Z,4.80
2023-04-10T09:14:23.242Z,4.80
2023-04-10T09:15:23.257Z,4.90
2023-04-10T09:16:23.286Z,5.00
2023-04-10T09:17:23.303Z,5.00
2023-04-10T09:18:23.253Z,4.50
2023-04-10T09:19:23.266Z,5.30
2023-04-10T09:20:23.240Z,4.70
2023-04-10T09:21:23.207Z,4.90
2023-04-10T09:22:23.378Z,5.00
2023-04-10T09:23:23.146Z,4.80
2023-04-10T09:24:23.135Z,5.10
2023-04-10T09:25:23.118Z,4.80
2023-04-10T09:26:23.098Z,4.30
2023-04-10T09:27:23.103Z,4.50
2023-04-10T09:28:23.064Z,5.10
2023-04-10T09:29:23.067Z,4.30
2023-04-10T09:30:23.066Z,4.40
2023-04-10T09:31:23.220Z,4.40
2023-04-10T09:32:23.063Z,4.20
2023-04-10T09:33:22.995Z,4.60
2023-04-10T09:34:23.005Z,4.50
2023-04-10T09:35:22.966Z,4.40
2023-04-10T09:36:22.993Z,4.40
2023-04-10T09:37:22.987Z,4.20
2023-04-10T09:38:22.966Z,4.50
2023-04-10T09:39:22.949Z,4.20
2023-04-10T09:40:22.920Z,3.70
2023-04-10T09:41:22.918Z,3.80
2023-04-10T09:42:22.904Z,3.80
2023-04-10T09:43:22.905Z,4.50
2023-04-10T09:44:22.856Z,4.20
2023-04-10T09:45:22.958Z,4.70
2023-04-10T09:46:22.863Z,4.60
2023-04-10T09:47:22.878Z,4.40
2023-04-10T09:48:22.823Z,4.70
2023-04-10T09:49:22.789Z,4.80
2023-04-10T09:50:22.794Z,6.70
2023-04-10T09:51:22.786Z,5.20
2023-04-10T09:52:22.789Z,4.40
2023-04-10T09:53:22.732Z,4.30
2023-04-10T09:54:22.726Z,4.40
2023-04-10T09:55:22.715Z,4.30
2023-04-10T09:56:22.734Z,4.30
2023-04-10T09:57:22.704Z,4.50
2023-04-10T09:58:22.702Z,5.10
2023-04-10T09:59:22.679Z,5.40
2023-04-10T10:00:22.673Z,4.60
2023-04-10T10:01:22.784Z,4.10
2023-04-10T10:02:22.763Z,4.20
2023-04-10T10:03:22.790Z,3.60
2023-04-10T10:04:22.640Z,4.50
2023-04-10T10:05:22.615Z,5.00
2023-04-10T10:06:22.571Z,4.80
2023-04-10T10:07:22.610Z,4.80
2023-04-10T10:08:22.588Z,4.70
2023-04-10T10:09:22.630Z,4.20
2023-04-10T10:10:22.529Z,4.10
2023-04-10T10:11:22.530Z,4.50
2023-04-10T10:12:22.511Z,4.00
2023-04-10T10:13:22.539Z,4.10
2023-04-10T10:14:22.488Z,3.90
2023-04-10T10:15:22.511Z,3.70
2023-04-10T10:16:23.094Z,4.00
2023-04-10T10:17:22.492Z,3.70
2023-04-10T10:18:22.433Z,4.20
2023-04-10T10:19:22.417Z,4.10
2023-04-10T10:20:22.420Z,3.80
2023-04-10T10:21:22.377Z,3.90
2023-04-10T10:22:22.371Z,3.80
2023-04-10T10:23:22.388Z,4.10
2023-04-10T10:24:22.364Z,3.60
2023-04-10T10:25:22.361Z,3.40
2023-04-10T10:26:22.334Z,3.40
2023-04-10T10:27:22.310Z,3.10
2023-04-10T10:28:22.329Z,3.30
2023-04-10T10:29:22.309Z,3.30
2023-04-10T10:30:30.239Z,3.50
2023-04-10T10:31:22.473Z,3.50
2023-04-10T10:32:22.286Z,3.80
2023-04-10T10:33:22.273Z,3.50
2023-04-10T10:34:22.251Z,3.80
2023-04-10T10:35:23.020Z,4.10
2023-04-10T10:36:22.265Z,3.70
2023-04-10T10:37:22.197Z,4.00
2023-04-10T10:38:22.201Z,4.00
2023-04-10T10:39:22.182Z,3.70
2023-04-10T10:40:22.189Z,3.90
2023-04-10T10:41:22.211Z,3.70
2023-04-10T10:42:22.149Z,3.70
2023-04-10T10:43:22.123Z,3.40
2023-04-10T10:44:22.121Z,3.30
2023-04-10T10:45:22.132Z,3.50
2023-04-10T10:46:22.198Z,3.30
2023-04-10T10:47:22.134Z,3.40
2023-04-10T10:48:22.062Z,3.40
2023-04-10T10:49:22.092Z,3.30
2023-04-10T10:50:23.465Z,3.50
2023-04-10T10:51:22.056Z,3.60
2023-04-10T10:52:22.018Z,3.10
2023-04-10T10:53:22.017Z,3.00
2023-04-10T10:54:21.999Z,3.10
2023-04-10T10:55:22.038Z,3.20
2023-04-10T10:56:22.062Z,3.40
2023-04-10T10:57:21.963Z,3.40
2023-04-10T10:58:21.944Z,3.50
2023-04-10T10:59:21.958Z,3.30
2023-04-10T11:00:21.937Z,3.60
2023-04-10T11:01:21.956Z,3.60
2023-04-10T11:02:21.979Z,3.20
2023-04-10T11:03:22.137Z,3.60
2023-04-10T11:04:21.874Z,3.30
2023-04-10T11:05:21.864Z,3.60
2023-04-10T11:06:22.110Z,3.50
2023-04-10T11:07:21.832Z,3.20
2023-04-10T11:08:21.881Z,2.70
2023-04-10T11:09:21.829Z,3.20
2023-04-10T11:10:21.815Z,3.50
2023-04-10T11:11:21.828Z,3.30
2023-04-10T11:12:21.786Z,3.50
2023-04-10T11:13:21.774Z,3.40
2023-04-10T11:14:21.742Z,3.30
2023-04-10T11:15:21.766Z,2.90
2023-04-10T11:16:21.826Z,3.00
2023-04-10T11:17:21.745Z,2.70
2023-04-10T11:18:21.717Z,2.90
2023-04-10T11:19:23.327Z,2.60
2023-04-10T11:20:21.716Z,2.70
2023-04-10T11:21:21.697Z,2.20
2023-04-10T11:22:21.709Z,1.90
2023-04-10T11:23:21.669Z,1.80
2023-04-10T11:24:21.675Z,1.80
2023-04-10T11:25:21.681Z,2.20
2023-04-10T11:26:21.688Z,1.80
2023-04-10T11:27:21.621Z,1.90
2023-04-10T11:28:21.589Z,1.80
2023-04-10T11:29:21.591Z,1.80
2023-04-10T11:30:21.654Z,1.40
2023-04-10T11:31:21.617Z,2.10
2023-04-10T11:32:21.582Z,1.90
2023-04-10T11:33:21.519Z,2.30
2023-04-10T11:34:21.517Z,2.20
2023-04-10T11:35:21.577Z,2.40
2023-04-10T11:36:21.502Z,2.30
2023-04-10T11:37:21.520Z,2.40
2023-04-10T11:38:21.501Z,2.30
2023-04-10T11:39:21.463Z,2.40
2023-04-10T11:40:21.453Z,2.60
2023-04-10T11:41:21.422Z,2.20
2023-04-10T11:42:21.469Z,2.50
2023-04-10T11:43:21.393Z,2.50
2023-04-10T11:44:21.384Z,2.40
2023-04-10T11:45:21.422Z,2.80
2023-04-10T11:46:21.423Z,2.40
2023-04-10T11:47:21.402Z,2.90
2023-04-10T11:48:21.333Z,2.50
2023-04-10T11:49:21.347Z,2.60
2023-04-10T11:50:21.352Z,2.40
2023-04-10T11:51:21.921Z,2.60
2023-04-10T11:52:21.306Z,2.50
2023-04-10T11:53:21.280Z,2.80
2023-04-10T11:54:21.312Z,2.40
2023-04-10T11:55:21.313Z,2.50
2023-04-10T11:56:21.317Z,2.50
2023-04-10T11:57:21.228Z,2.60
2023-04-10T11:58:21.253Z,2.40
2023-04-10T11:59:21.212Z,2.40
2023-04-10T12:00:21.220Z,2.50
2023-04-10T12:01:27.771Z,2.70
2023-04-10T12:02:21.412Z,2.70
2023-04-10T12:03:22.245Z,2.40
2023-04-10T12:04:21.358Z,2.40
2023-04-10T12:05:21.138Z,2.50
2023-04-10T12:06:21.140Z,2.50
2023-04-10T12:07:21.100Z,2.50
2023-04-10T12:08:21.129Z,2.40
2023-04-10T12:09:21.120Z,2.40
2023-04-10T12:10:21.087Z,2.30
2023-04-10T12:11:21.055Z,2.80
2023-04-10T12:12:21.029Z,2.60
2023-04-10T12:13:21.050Z,2.70
2023-04-10T12:14:21.030Z,2.60
2023-04-10T12:15:21.186Z,2.70
2023-04-10T12:16:21.039Z,2.60
2023-04-10T12:17:21.013Z,2.80
2023-04-10T12:18:20.979Z,2.60
2023-04-10T12:19:20.956Z,2.90
2023-04-10T12:20:20.919Z,2.60
2023-04-10T12:22:42.094Z,2.50
2023-04-10T12:23:43.046Z,2.40
2023-04-10T12:24:43.009Z,2.60
2023-04-10T12:25:57.115Z,2.60
2023-04-10T12:26:43.154Z,2.40
2023-04-10T12:27:43.004Z,2.30
2023-04-10T12:28:43.024Z,2.30
2023-04-10T12:29:42.809Z,2.60
2023-04-10T12:30:42.804Z,2.80
2023-04-10T12:31:43.030Z,2.80
2023-04-10T12:32:42.913Z,2.90
2023-04-10T12:33:42.773Z,2.60
2023-04-10T12:34:42.784Z,2.80
2023-04-10T12:35:42.883Z,2.80
2023-04-10T12:36:42.723Z,2.30
2023-04-10T12:37:42.701Z,2.50
2023-04-10T12:38:43.533Z,2.60
2023-04-10T12:39:42.694Z,2.40
2023-04-10T12:40:42.697Z,2.50
2023-04-10T12:41:42.701Z,2.30
2023-04-10T12:42:42.700Z,2.70
2023-04-10T12:43:42.641Z,2.80
2023-04-10T12:44:42.669Z,2.60
2023-04-10T12:45:42.678Z,2.40
2023-04-10T12:46:42.737Z,2.40
2023-04-10T12:47:42.805Z,2.60
2023-04-10T12:48:42.593Z,2.70
2023-04-10T12:49:42.581Z,2.40
2023-04-10T12:50:42.572Z,2.20
2023-04-10T12:51:42.549Z,2.40
2023-04-10T12:52:42.531Z,2.50
2023-04-10T12:53:42.540Z,2.20
2023-04-10T12:54:42.507Z,2.20
2023-04-10T12:55:42.487Z,2.30
2023-04-10T12:56:42.474Z,2.40
2023-04-10T12:57:42.466Z,2.20
2023-04-10T12:58:42.584Z,2.40
2023-04-10T12:59:42.448Z,2.40
2023-04-10T13:00:42.450Z,2.50
2023-04-10T13:01:42.433Z,2.70
2023-04-10T13:02:42.666Z,2.10
2023-04-10T13:03:42.596Z,2.20
2023-04-10T13:04:42.442Z,2.00
2023-04-10T13:05:42.435Z,2.10
2023-04-10T13:06:42.336Z,2.30
2023-04-10T13:07:42.326Z,2.30
2023-04-10T13:08:42.308Z,2.00
2023-04-10T13:09:42.395Z,2.10
2023-04-10T13:10:42.302Z,2.10
2023-04-10T13:11:42.298Z,2.20
2023-04-10T13:12:42.258Z,2.00
2023-04-10T13:13:42.250Z,1.80
2023-04-10T13:14:42.237Z,2.00
2023-04-10T13:15:42.226Z,2.00
2023-04-10T13:16:42.297Z,2.10
2023-04-10T13:17:42.240Z,2.00
2023-04-10T13:18:42.183Z,2.00
2023-04-10T13:19:42.159Z,2.40
2023-04-10T13:20:42.211Z,2.10